San Francisco, California
Traffic Map
Current Weather Conditions
San Francisco, California
Overcast
Overcast
15°
Feels Like: 15°
Wind Chill: 15° Ceiling: 2400
Heat Index: 15° Visibility: 10mi
Dew Point: Wind: 14mph
Humidity: 69% Direction: 270° (W)
Pressure: 30.05in Gusts: 21mph
Raw Report DataKSFO 230156Z 27012G18KT 10SM FEW013 SCT019 OVC024 15/09 A3005 RMK AO2 SLP174 T01500094
Traffic Incident Summary
Active as of:
Severity:
Category:
InformationThere was an issue retrieving the traffic information for this location. Please try a different location or try again shortly.
Advertisements
Track Severe Weather on mobile